createdAt,value
2018-06-20T00:00:36.247Z,99.90
2018-06-20T00:03:04.941Z,99.90
2018-06-20T00:05:33.445Z,99.90
2018-06-20T00:08:02.036Z,99.90
2018-06-20T00:10:30.523Z,99.90
2018-06-20T00:12:59.261Z,99.90
2018-06-20T00:15:27.747Z,99.90
2018-06-20T00:17:56.266Z,99.90
2018-06-20T00:20:24.755Z,99.90
2018-06-20T00:22:53.455Z,99.90
2018-06-20T00:25:21.934Z,99.90
2018-06-20T00:27:50.487Z,99.90
2018-06-20T00:30:19.089Z,99.90
2018-06-20T00:32:47.653Z,99.90
2018-06-20T00:35:16.575Z,99.90
2018-06-20T00:37:45.407Z,99.90
2018-06-20T00:40:13.994Z,99.90
2018-06-20T00:42:42.610Z,99.90
2018-06-20T00:45:11.151Z,99.90
2018-06-20T00:47:39.839Z,99.90
2018-06-20T00:50:08.516Z,99.90
2018-06-20T00:52:37.088Z,99.90
2018-06-20T00:55:05.823Z,99.90
2018-06-20T00:57:34.317Z,99.90
2018-06-20T01:00:02.839Z,99.90
2018-06-20T01:02:31.310Z,99.90
2018-06-20T01:05:05.046Z,99.90
2018-06-20T01:07:33.544Z,99.90
2018-06-20T01:10:02.062Z,99.90
2018-06-20T01:12:30.563Z,99.90
2018-06-20T01:14:59.339Z,99.90
2018-06-20T01:17:27.842Z,99.90
2018-06-20T01:19:56.356Z,99.90
2018-06-20T01:22:24.862Z,99.90
2018-06-20T01:24:53.499Z,99.90
2018-06-20T01:27:22.011Z,99.90
2018-06-20T01:29:50.596Z,99.90
2018-06-20T01:32:19.177Z,99.90
2018-06-20T01:34:47.846Z,99.90
2018-06-20T01:37:16.367Z,99.90
2018-06-20T01:39:44.920Z,99.90
2018-06-20T01:42:13.439Z,99.90
2018-06-20T01:44:41.961Z,99.90
2018-06-20T01:47:10.440Z,99.90
2018-06-20T01:49:38.968Z,99.90
2018-06-20T01:52:07.448Z,99.90
2018-06-20T01:54:36.103Z,99.90
2018-06-20T01:57:04.576Z,99.90
2018-06-20T01:59:33.285Z,99.90
2018-06-20T02:02:02.040Z,99.90
2018-06-20T02:04:30.535Z,99.90
2018-06-20T02:06:59.083Z,99.90
2018-06-20T02:09:27.809Z,99.90
2018-06-20T02:11:56.304Z,99.90
2018-06-20T02:14:24.961Z,99.90
2018-06-20T02:16:53.655Z,99.90
2018-06-20T02:19:22.296Z,99.90
2018-06-20T02:21:50.997Z,99.90
2018-06-20T02:24:19.491Z,99.90
2018-06-20T02:26:48.019Z,99.90
2018-06-20T02:29:16.491Z,99.90
2018-06-20T02:31:45.106Z,99.90
2018-06-20T02:34:13.847Z,99.90
2018-06-20T02:36:42.526Z,99.90
2018-06-20T02:39:11.039Z,99.90
2018-06-20T02:41:39.563Z,99.90
2018-06-20T02:44:08.198Z,99.90
2018-06-20T02:46:36.879Z,99.90
2018-06-20T02:49:05.735Z,99.90
2018-06-20T02:51:34.327Z,99.90
2018-06-20T02:56:31.007Z,99.90
2018-06-20T02:58:59.520Z,99.90
2018-06-20T03:01:28.044Z,99.90
2018-06-20T03:03:56.680Z,99.90
2018-06-20T03:06:25.220Z,99.90
2018-06-20T03:08:59.168Z,99.90
2018-06-20T03:11:27.713Z,99.90
2018-06-20T03:13:56.322Z,99.90
2018-06-20T03:16:25.021Z,99.90
2018-06-20T03:18:53.504Z,99.90
2018-06-20T03:21:22.452Z,99.90
2018-06-20T03:23:50.971Z,99.90
2018-06-20T03:26:19.595Z,99.90
2018-06-20T03:28:48.092Z,99.90
2018-06-20T03:31:16.633Z,99.90
2018-06-20T03:33:45.685Z,99.90
2018-06-20T03:36:14.340Z,99.90
2018-06-20T03:41:11.217Z,99.90
2018-06-20T03:43:39.767Z,99.90
2018-06-20T03:46:08.511Z,99.90
2018-06-20T03:48:37.160Z,99.90
2018-06-20T03:53:34.379Z,99.90
2018-06-20T03:56:03.091Z,99.90
2018-06-20T03:58:31.693Z,99.90
2018-06-20T04:01:00.307Z,99.90
2018-06-20T04:03:28.832Z,99.90
2018-06-20T04:05:57.321Z,99.90
2018-06-20T04:08:25.884Z,99.90
2018-06-20T04:10:54.409Z,99.90
2018-06-20T04:13:22.939Z,99.90
2018-06-20T04:15:52.072Z,99.90
2018-06-20T04:18:21.102Z,99.90
2018-06-20T04:20:49.664Z,99.90
2018-06-20T04:23:18.207Z,99.90
2018-06-20T04:25:46.780Z,99.90
2018-06-20T04:28:15.478Z,99.90
2018-06-20T04:30:44.066Z,99.90
2018-06-20T04:33:12.683Z,99.90
2018-06-20T04:35:41.566Z,99.90
2018-06-20T04:38:10.192Z,99.90
2018-06-20T04:40:38.715Z,99.90
2018-06-20T04:43:07.200Z,99.90
2018-06-20T04:45:35.714Z,99.90
2018-06-20T04:48:04.376Z,99.90
2018-06-20T04:50:32.917Z,99.90
2018-06-20T04:53:01.409Z,99.90
2018-06-20T04:55:30.036Z,99.90
2018-06-20T04:57:58.538Z,99.90
2018-06-20T05:00:27.733Z,99.90
2018-06-20T05:02:56.265Z,99.90
2018-06-20T05:05:25.176Z,99.90
2018-06-20T05:10:22.060Z,99.90
2018-06-20T05:12:50.769Z,99.90
2018-06-20T05:15:19.242Z,99.90
2018-06-20T05:17:47.843Z,99.90
2018-06-20T05:20:16.468Z,99.90
2018-06-20T05:25:13.666Z,99.90
2018-06-20T05:27:42.303Z,99.90
2018-06-20T05:30:10.832Z,99.90
2018-06-20T05:32:39.372Z,99.80
2018-06-20T05:35:07.966Z,99.70
2018-06-20T05:37:36.625Z,99.50
2018-06-20T05:40:05.575Z,99.70
2018-06-20T05:42:34.069Z,99.30
2018-06-20T05:45:02.696Z,99.40
2018-06-20T05:47:31.236Z,99.20
2018-06-20T05:49:59.808Z,98.80
2018-06-20T05:52:28.554Z,98.30
2018-06-20T05:54:57.349Z,98.30
2018-06-20T05:57:25.869Z,98.50
2018-06-20T05:59:54.446Z,98.50
2018-06-20T06:02:23.022Z,98.40
2018-06-20T06:04:51.745Z,98.50
2018-06-20T06:07:21.093Z,97.60
2018-06-20T06:09:49.686Z,98.00
2018-06-20T06:12:18.455Z,97.90
2018-06-20T06:14:47.172Z,97.10
2018-06-20T06:17:15.758Z,96.70
2018-06-20T06:19:44.302Z,96.50
2018-06-20T06:22:12.903Z,96.50
2018-06-20T06:24:41.694Z,96.80
2018-06-20T06:27:10.189Z,96.20
2018-06-20T06:29:38.773Z,96.30
2018-06-20T06:32:07.290Z,96.00
2018-06-20T06:34:35.937Z,95.70
2018-06-20T06:37:04.472Z,96.30
2018-06-20T06:39:33.198Z,96.20
2018-06-20T06:42:02.066Z,96.80
2018-06-20T06:44:30.650Z,96.30
2018-06-20T06:46:59.210Z,96.30
2018-06-20T06:49:27.956Z,96.40
2018-06-20T06:51:56.531Z,96.70
2018-06-20T06:54:25.218Z,95.40
2018-06-20T06:56:54.247Z,95.20
2018-06-20T06:59:22.775Z,95.50
2018-06-20T07:01:51.458Z,95.80
2018-06-20T07:04:20.029Z,95.90
2018-06-20T07:06:48.768Z,95.80
2018-06-20T07:09:18.679Z,95.00
2018-06-20T07:11:47.559Z,95.50
2018-06-20T07:14:16.339Z,94.70
2018-06-20T07:16:45.111Z,94.80
2018-06-20T07:19:13.608Z,94.50
2018-06-20T07:21:42.371Z,94.30
2018-06-20T07:24:11.094Z,94.40
2018-06-20T07:26:39.628Z,94.20
2018-06-20T07:29:08.464Z,93.10
2018-06-20T07:31:37.319Z,93.60
2018-06-20T07:36:34.668Z,94.20
2018-06-20T07:39:03.459Z,93.50
2018-06-20T07:41:32.101Z,92.50
2018-06-20T07:44:00.673Z,92.20
2018-06-20T07:46:29.228Z,92.50
2018-06-20T07:48:57.772Z,92.90
2018-06-20T07:51:26.339Z,93.30
2018-06-20T07:53:55.031Z,93.50
2018-06-20T07:56:24.531Z,93.20
2018-06-20T07:58:57.503Z,93.20
2018-06-20T08:01:42.757Z,93.40
2018-06-20T08:04:16.538Z,93.50
2018-06-20T08:08:56.233Z,93.60
2018-06-20T08:11:30.136Z,92.50
2018-06-20T08:14:04.179Z,90.90
2018-06-20T08:16:37.937Z,91.10
2018-06-20T08:21:40.240Z,89.40
2018-06-20T08:24:08.799Z,87.70
2018-06-20T08:26:37.304Z,87.00
2018-06-20T08:29:06.083Z,85.90
2018-06-20T08:34:03.244Z,85.80
2018-06-20T08:39:00.525Z,84.90
2018-06-20T08:41:29.622Z,81.60
2018-06-20T08:43:58.210Z,81.60
2018-06-20T08:46:27.071Z,81.20
2018-06-20T08:48:55.834Z,79.10
2018-06-20T08:51:24.468Z,79.90
2018-06-20T08:53:53.191Z,76.70
2018-06-20T08:56:21.986Z,76.20
2018-06-20T08:58:50.797Z,75.40
2018-06-20T09:01:19.575Z,77.70
2018-06-20T09:03:48.356Z,78.90
2018-06-20T09:06:22.538Z,79.70
2018-06-20T09:08:56.181Z,80.00
2018-06-20T09:11:29.971Z,77.20
2018-06-20T09:14:04.078Z,74.50
2018-06-20T09:16:37.940Z,75.60
2018-06-20T09:19:11.872Z,75.40
2018-06-20T09:21:40.495Z,75.30
2018-06-20T09:24:09.395Z,74.70
2018-06-20T09:26:38.123Z,75.60
2018-06-20T09:29:06.725Z,75.60
2018-06-20T09:31:35.516Z,74.40
2018-06-20T09:34:04.101Z,74.30
2018-06-20T09:36:32.632Z,74.90
2018-06-20T09:39:01.159Z,74.40
2018-06-20T09:41:30.302Z,74.80
2018-06-20T09:43:58.989Z,73.70
2018-06-20T09:46:27.714Z,73.80
2018-06-20T09:48:56.657Z,71.90
2018-06-20T09:51:25.184Z,69.90
2018-06-20T09:53:54.025Z,69.80
2018-06-20T09:56:22.778Z,68.80
2018-06-20T09:58:51.416Z,69.80
2018-06-20T10:01:25.190Z,71.40
2018-06-20T10:03:58.979Z,71.40
2018-06-20T10:06:33.032Z,71.40
2018-06-20T10:09:06.704Z,67.00
2018-06-20T10:11:40.453Z,66.20
2018-06-20T10:14:13.202Z,65.80
2018-06-20T10:16:42.111Z,64.30
2018-06-20T10:19:10.660Z,64.40
2018-06-20T10:21:39.460Z,64.20
2018-06-20T10:24:08.204Z,65.60
2018-06-20T10:26:36.856Z,66.80
2018-06-20T10:29:05.895Z,65.70
2018-06-20T10:31:34.549Z,63.40
2018-06-20T10:34:03.272Z,62.20
2018-06-20T10:36:31.919Z,58.40
2018-06-20T10:39:00.588Z,59.10
2018-06-20T10:41:33.392Z,60.20
2018-06-20T10:44:06.498Z,59.70
2018-06-20T10:46:40.416Z,58.20
2018-06-20T10:49:09.191Z,56.60
2018-06-20T10:51:37.856Z,55.00
2018-06-20T10:54:06.470Z,53.40
2018-06-20T10:56:40.697Z,54.60
2018-06-20T10:59:14.623Z,56.40
2018-06-20T11:01:48.533Z,56.40
2018-06-20T11:04:22.294Z,57.20
2018-06-20T11:06:56.250Z,58.20
2018-06-20T11:09:30.344Z,57.60
2018-06-20T11:12:04.105Z,57.80
2018-06-20T11:14:32.725Z,56.80
2018-06-20T11:17:01.244Z,54.70
2018-06-20T11:19:29.886Z,53.60
2018-06-20T11:21:58.723Z,54.00
2018-06-20T11:24:27.240Z,54.40
2018-06-20T11:26:55.894Z,53.10
2018-06-20T11:29:24.421Z,52.70
2018-06-20T11:31:52.938Z,51.50
2018-06-20T11:34:21.843Z,51.10
2018-06-20T11:36:50.496Z,50.20
2018-06-20T11:39:19.195Z,49.10
2018-06-20T11:41:47.776Z,46.80
2018-06-20T11:44:16.436Z,47.60
2018-06-20T11:46:50.195Z,50.10
2018-06-20T11:49:18.716Z,51.30
2018-06-20T11:51:47.418Z,52.40
2018-06-20T11:54:15.926Z,53.00
2018-06-20T11:56:44.663Z,50.30
2018-06-20T11:59:18.580Z,47.70
2018-06-20T12:01:52.373Z,47.10
2018-06-20T12:05:29.664Z,44.20
2018-06-20T12:08:03.748Z,42.40
2018-06-20T12:10:37.901Z,40.70
2018-06-20T12:13:11.715Z,40.60
2018-06-20T12:15:45.591Z,43.00
2018-06-20T12:18:19.468Z,42.30
2018-06-20T12:20:53.390Z,41.90
2018-06-20T12:23:27.419Z,38.70
2018-06-20T12:26:01.382Z,38.70
2018-06-20T12:28:35.552Z,37.90
2018-06-20T12:31:09.292Z,37.90
2018-06-20T12:33:43.345Z,41.20
2018-06-20T12:36:16.972Z,42.40
2018-06-20T12:38:50.908Z,42.50
2018-06-20T12:41:24.845Z,37.40
2018-06-20T12:43:58.681Z,37.30
2018-06-20T12:49:08.231Z,37.00
2018-06-20T12:51:36.939Z,37.60
2018-06-20T12:54:06.090Z,37.00
2018-06-20T12:56:34.888Z,37.60
2018-06-20T12:59:03.631Z,35.70
2018-06-20T13:01:32.336Z,35.30
2018-06-20T13:04:00.896Z,37.00
2018-06-20T13:06:29.538Z,33.90
2018-06-20T13:11:27.081Z,34.60
2018-06-20T13:13:55.611Z,35.70
2018-06-20T13:18:57.963Z,37.20
2018-06-20T13:21:26.803Z,37.50
2018-06-20T13:23:55.717Z,37.40
2018-06-20T13:26:24.958Z,34.40
2018-06-20T13:28:54.285Z,32.90
2018-06-20T13:31:28.325Z,33.80
2018-06-20T13:34:02.155Z,32.70
2018-06-20T13:38:43.684Z,33.10
2018-06-20T13:41:17.768Z,32.50
2018-06-20T13:43:52.023Z,30.70
2018-06-20T13:46:25.867Z,30.40
2018-06-20T13:48:56.767Z,29.70
2018-06-20T13:51:25.502Z,29.80
2018-06-20T13:53:54.225Z,29.40
2018-06-20T13:56:23.120Z,29.30
2018-06-20T13:58:51.960Z,29.40
2018-06-20T14:01:20.501Z,29.80
2018-06-20T14:03:49.025Z,29.10
2018-06-20T14:06:17.804Z,30.60
2018-06-20T14:08:47.375Z,29.70
2018-06-20T14:11:16.318Z,30.00
2018-06-20T14:13:44.883Z,29.30
2018-06-20T14:16:13.521Z,30.10
2018-06-20T14:18:42.393Z,30.50
2018-06-20T14:21:16.193Z,30.30
2018-06-20T14:23:45.100Z,30.60
2018-06-20T14:26:13.674Z,30.00
2018-06-20T14:28:42.378Z,29.20
2018-06-20T14:31:16.227Z,28.70
2018-06-20T14:33:50.138Z,28.90
2018-06-20T14:36:24.250Z,28.30
2018-06-20T14:38:58.083Z,26.70
2018-06-20T14:41:26.964Z,26.10
2018-06-20T14:44:01.300Z,27.30
2018-06-20T14:46:31.748Z,27.10
2018-06-20T14:49:00.380Z,26.20
2018-06-20T14:51:29.361Z,26.60
2018-06-20T14:53:58.199Z,27.80
2018-06-20T14:56:26.929Z,27.70
2018-06-20T14:58:55.518Z,28.30
2018-06-20T15:01:24.137Z,27.70
2018-06-20T15:03:52.769Z,27.30
2018-06-20T15:06:21.592Z,25.50
2018-06-20T15:08:50.590Z,25.60
2018-06-20T15:11:19.572Z,26.30
2018-06-20T15:13:48.436Z,26.50
2018-06-20T15:16:22.376Z,27.00
2018-06-20T15:18:51.100Z,28.30
2018-06-20T15:21:19.819Z,29.70
2018-06-20T15:23:48.391Z,30.80
2018-06-20T15:26:22.316Z,31.30
2018-06-20T15:28:55.967Z,32.10
2018-06-20T15:31:29.814Z,31.40
2018-06-20T15:34:03.610Z,30.00
2018-06-20T15:36:37.481Z,29.00
2018-06-20T15:39:08.299Z,29.00
2018-06-20T15:41:37.439Z,29.70
2018-06-20T15:44:06.767Z,30.00
2018-06-20T15:46:35.477Z,28.70
2018-06-20T15:49:04.255Z,29.30
2018-06-20T15:51:32.952Z,28.30
2018-06-20T15:54:02.100Z,27.50
2018-06-20T15:56:30.814Z,27.40
2018-06-20T15:58:59.496Z,27.00
2018-06-20T16:03:56.757Z,29.40
2018-06-20T16:06:25.580Z,28.80
2018-06-20T16:08:59.463Z,29.20
2018-06-20T16:11:28.312Z,29.50
2018-06-20T16:13:56.943Z,30.10
2018-06-20T16:16:25.921Z,31.40
2018-06-20T16:18:59.756Z,32.30
2018-06-20T16:21:33.652Z,34.10
2018-06-20T16:24:07.369Z,36.30
2018-06-20T16:26:41.498Z,37.10
2018-06-20T16:31:17.464Z,38.00
2018-06-20T16:33:46.238Z,38.20
2018-06-20T16:36:15.043Z,39.40
2018-06-20T16:38:43.765Z,40.00
2018-06-20T16:41:12.580Z,39.60
2018-06-20T16:46:09.941Z,39.70
2018-06-20T16:48:38.660Z,38.20
2018-06-20T16:51:07.547Z,37.80
2018-06-20T16:53:36.347Z,36.50
2018-06-20T16:56:05.001Z,36.50
2018-06-20T16:58:33.891Z,36.30
2018-06-20T17:01:07.600Z,36.50
2018-06-20T17:03:36.428Z,37.80
2018-06-20T17:06:05.291Z,38.90
2018-06-20T17:08:33.845Z,40.60
2018-06-20T17:11:02.590Z,41.20
2018-06-20T17:13:36.707Z,42.30
2018-06-20T17:16:10.794Z,43.60
2018-06-20T17:19:48.145Z,44.50
2018-06-20T17:22:21.967Z,45.40
2018-06-20T17:24:56.020Z,46.10
2018-06-20T17:27:24.576Z,47.00
2018-06-20T17:29:53.427Z,46.20
2018-06-20T17:32:22.182Z,47.40
2018-06-20T17:34:50.962Z,46.60
2018-06-20T17:37:19.491Z,47.50
2018-06-20T17:39:48.114Z,48.20
2018-06-20T17:42:16.641Z,49.70
2018-06-20T17:44:45.373Z,49.60
2018-06-20T17:47:14.276Z,50.20
2018-06-20T17:49:42.883Z,50.60
2018-06-20T17:52:11.597Z,51.20
2018-06-20T17:54:40.631Z,51.80
2018-06-20T17:57:09.408Z,52.50
2018-06-20T17:59:38.170Z,52.10
2018-06-20T18:02:07.826Z,52.80
2018-06-20T18:04:41.722Z,52.60
2018-06-20T18:07:15.485Z,53.10
2018-06-20T18:09:49.671Z,53.30
2018-06-20T18:12:23.594Z,53.60
2018-06-20T18:14:57.549Z,53.70
2018-06-20T18:17:26.243Z,53.60
2018-06-20T18:19:54.899Z,53.70
2018-06-20T18:22:23.637Z,54.30
2018-06-20T18:24:52.492Z,54.40
2018-06-20T18:29:49.782Z,55.30
2018-06-20T18:32:18.334Z,56.00
2018-06-20T18:37:15.646Z,56.60
2018-06-20T18:39:49.597Z,56.90
2018-06-20T18:42:18.133Z,57.20
2018-06-20T18:44:46.732Z,57.80
2018-06-20T18:47:20.619Z,57.90
2018-06-20T18:49:49.387Z,58.00
2018-06-20T18:52:18.291Z,59.10
2018-06-20T18:54:47.089Z,59.60
2018-06-20T18:57:20.957Z,60.10
2018-06-20T19:01:59.261Z,61.50
2018-06-20T19:04:33.225Z,62.70
2018-06-20T19:07:07.243Z,65.80
2018-06-20T19:09:36.294Z,67.90
2018-06-20T19:12:05.045Z,69.30
2018-06-20T19:14:33.665Z,70.60
2018-06-20T19:17:02.270Z,71.70
2018-06-20T19:19:30.812Z,72.30
2018-06-20T19:21:59.600Z,73.60
2018-06-20T19:24:28.188Z,74.50
2018-06-20T19:26:57.302Z,75.40
2018-06-20T19:29:26.089Z,75.80
2018-06-20T19:31:54.707Z,77.10
2018-06-20T19:34:23.311Z,78.30
2018-06-20T19:36:52.075Z,78.80
2018-06-20T19:39:25.922Z,79.20
2018-06-20T19:41:54.735Z,80.20
2018-06-20T19:44:28.915Z,80.50
2018-06-20T19:46:57.867Z,81.50
2018-06-20T19:51:55.649Z,83.50
2018-06-20T19:54:24.161Z,83.60
2018-06-20T19:56:53.132Z,84.20
2018-06-20T19:59:21.995Z,85.20
2018-06-20T20:01:52.554Z,85.80
2018-06-20T20:04:21.139Z,87.10
2018-06-20T20:06:50.224Z,87.40
2018-06-20T20:09:18.764Z,87.70
2018-06-20T20:11:47.737Z,89.10
2018-06-20T20:14:16.540Z,89.80
2018-06-20T20:16:45.237Z,90.20
2018-06-20T20:19:14.076Z,90.50
2018-06-20T20:21:42.707Z,90.90
2018-06-20T20:24:11.548Z,92.00
2018-06-20T20:26:40.150Z,90.90
2018-06-20T20:29:08.981Z,91.50
2018-06-20T20:31:37.885Z,91.50
2018-06-20T20:36:35.290Z,91.90
2018-06-20T20:39:06.154Z,91.70
2018-06-20T20:41:34.723Z,91.80
2018-06-20T20:44:03.278Z,91.70
2018-06-20T20:46:31.856Z,91.70
2018-06-20T20:49:00.453Z,91.70
2018-06-20T20:51:29.024Z,91.60
2018-06-20T20:53:57.770Z,91.90
2018-06-20T20:56:26.450Z,91.90
2018-06-20T20:58:55.039Z,91.90
2018-06-20T21:01:23.646Z,92.10
2018-06-20T21:03:52.321Z,92.00
2018-06-20T21:06:21.230Z,92.30
2018-06-20T21:08:49.925Z,92.50
2018-06-20T21:11:18.604Z,92.90
2018-06-20T21:13:47.403Z,93.10
2018-06-20T21:16:16.115Z,93.40
2018-06-20T21:18:44.689Z,93.50
2018-06-20T21:21:13.334Z,93.70
2018-06-20T21:23:42.271Z,93.80
2018-06-20T21:26:11.083Z,93.80
2018-06-20T21:28:39.612Z,94.00
2018-06-20T21:31:08.109Z,94.10
2018-06-20T21:33:36.935Z,94.30
2018-06-20T21:36:06.253Z,94.40
2018-06-20T21:38:35.188Z,94.60
2018-06-20T21:41:04.235Z,94.80
2018-06-20T21:43:32.897Z,95.00
2018-06-20T21:46:01.571Z,95.10
2018-06-20T21:48:30.118Z,95.20
2018-06-20T21:50:58.743Z,95.50
2018-06-20T21:53:27.324Z,95.70
2018-06-20T21:55:56.110Z,95.80
2018-06-20T21:58:24.630Z,95.80
2018-06-20T22:00:53.212Z,95.90
2018-06-20T22:03:21.789Z,95.60
2018-06-20T22:05:50.488Z,95.80
2018-06-20T22:10:47.233Z,96.20
2018-06-20T22:13:15.810Z,96.20
2018-06-20T22:15:44.345Z,96.30
2018-06-20T22:18:12.902Z,96.40
2018-06-20T22:23:09.846Z,96.10
2018-06-20T22:25:38.420Z,96.10
2018-06-20T22:28:06.976Z,96.10
2018-06-20T22:30:35.712Z,96.10
2018-06-20T22:35:32.798Z,96.30
2018-06-20T22:38:01.565Z,96.20
2018-06-20T22:40:30.481Z,96.50
2018-06-20T22:42:59.310Z,96.70
2018-06-20T22:45:28.241Z,96.70
2018-06-20T22:47:56.903Z,96.80
2018-06-20T22:50:25.438Z,97.00
2018-06-20T22:52:53.952Z,97.10
2018-06-20T22:55:22.775Z,97.20
2018-06-20T22:57:51.405Z,97.20
2018-06-20T23:00:19.882Z,97.30
2018-06-20T23:02:48.808Z,97.40
2018-06-20T23:05:17.547Z,97.50
2018-06-20T23:07:46.448Z,97.50
2018-06-20T23:10:14.977Z,97.60
2018-06-20T23:12:43.651Z,97.50
2018-06-20T23:15:12.596Z,97.70
2018-06-20T23:17:41.292Z,98.00
2018-06-20T23:20:10.070Z,98.10
2018-06-20T23:22:38.571Z,98.20
2018-06-20T23:25:07.284Z,98.20
2018-06-20T23:27:35.776Z,98.30
2018-06-20T23:30:04.991Z,98.20
2018-06-20T23:35:01.919Z,97.90
2018-06-20T23:37:30.396Z,97.70
2018-06-20T23:39:58.939Z,97.80
2018-06-20T23:42:27.728Z,98.10
2018-06-20T23:44:56.256Z,98.20
2018-06-20T23:47:24.753Z,98.70
2018-06-20T23:49:53.961Z,99.10
2018-06-20T23:52:22.608Z,99.40
2018-06-20T23:54:51.256Z,99.50
2018-06-20T23:57:20.011Z,99.60
2018-06-20T23:59:48.519Z,99.70
